Time;durP1;ratioP1;P1;durP2;ratioP2;P2;SDS_P1;SDS_P2;PMS_P1;PMS_P2;Temp;Humidity;BMP_temperature;BMP_pressure;BME280_temperature;BME280_humidity;BME280_pressure;Samples;Min_cycle;Max_cycle;Signal;HPM_P1;HPM_P2
2022/12/27 00:01:55;;;;;;;1.67;0.90;;;;;;;;;;4995424;28;20216;-78
2022/12/27 00:05:01;;;;;;;2.17;1.00;;;;;;;;;;4994539;28;20205;-78
2022/12/27 00:08:05;;;;;;;1.50;0.90;;;;;;;;;;5006634;28;20206;-78
2022/12/27 00:11:19;;;;;;;2.57;0.90;;;;;;;;;;4995182;28;20221;-78
2022/12/27 00:14:24;;;;;;;1.97;0.60;;;;;;;;;;5029317;28;20205;-78
2022/12/27 00:17:28;;;;;;;3.20;0.97;;;;;;;;;;5018275;28;20201;-77
2022/12/27 00:20:35;;;;;;;1.20;0.70;;;;;;;;;;4995141;28;20177;-78
2022/12/27 00:23:42;;;;;;;3.13;0.83;;;;;;;;;;5006449;28;20186;-78
2022/12/27 00:26:46;;;;;;;2.00;0.70;;;;;;;;;;5018427;28;20769;-78
2022/12/27 00:29:51;;;;;;;1.97;0.70;;;;;;;;;;5018114;28;20181;-78
2022/12/27 00:32:55;;;;;;;2.83;1.00;;;;;;;;;;5006356;28;20224;-78
2022/12/27 00:36:03;;;;;;;2.03;0.87;;;;;;;;;;5006144;28;20177;-78
2022/12/27 00:39:09;;;;;;;2.10;0.77;;;;;;;;;;5028125;28;20181;-78
2022/12/27 00:42:13;;;;;;;1.53;0.70;;;;;;;;;;5018172;28;20217;-78
2022/12/27 00:45:17;;;;;;;1.30;0.90;;;;;;;;;;5006093;28;20185;-78
2022/12/27 00:48:21;;;;;;;0.70;0.70;;;;;;;;;;4994510;28;20620;-78
2022/12/27 00:51:25;;;;;;;1.93;0.80;;;;;;;;;;5017043;28;20213;-78
2022/12/27 00:54:30;;;;;;;3.27;0.60;;;;;;;;;;4993988;28;20532;-77
2022/12/27 00:57:34;;;;;;;1.30;0.80;;;;;;;;;;5027884;28;20173;-77
2022/12/27 01:00:38;;;;;;;1.77;1.03;;;;;;;;;;4994008;28;20197;-78
2022/12/27 01:03:43;;;;;;;1.13;0.70;;;;;;;;;;5017181;28;20557;-78
2022/12/27 01:06:47;;;;;;;1.07;0.73;;;;;;;;;;4983498;28;20185;-78
2022/12/27 01:09:51;;;;;;;0.70;0.60;;;;;;;;;;5004984;28;20182;-78
2022/12/27 01:12:55;;;;;;;1.83;0.83;;;;;;;;;;5028107;28;20213;-78
2022/12/27 01:16:00;;;;;;;0.60;0.60;;;;;;;;;;5017343;28;20178;-78
2022/12/27 01:19:04;;;;;;;2.10;1.00;;;;;;;;;;5005232;28;20181;-78
2022/12/27 01:22:08;;;;;;;0.73;0.60;;;;;;;;;;5016079;28;20213;-78
2022/12/27 01:25:12;;;;;;;1.90;0.80;;;;;;;;;;4993367;28;20194;-78
2022/12/27 01:28:16;;;;;;;0.90;0.70;;;;;;;;;;5005134;28;20193;-78
2022/12/27 01:31:26;;;;;;;0.70;0.70;;;;;;;;;;5004539;28;20221;-78
2022/12/27 01:34:30;;;;;;;1.63;0.77;;;;;;;;;;5016464;28;20201;-78
2022/12/27 01:37:34;;;;;;;1.00;0.67;;;;;;;;;;5004390;28;20637;-78
2022/12/27 01:40:38;;;;;;;1.87;0.90;;;;;;;;;;5004697;28;20186;-78
2022/12/27 01:43:43;;;;;;;1.07;0.70;;;;;;;;;;5016451;28;20177;-78
2022/12/27 01:46:47;;;;;;;2.03;0.90;;;;;;;;;;4992424;28;20545;-78
2022/12/27 01:50:18;;;;;;;1.53;0.77;;;;;;;;;;5015979;28;20620;-78
2022/12/27 01:53:43;;;;;;;3.00;0.60;;;;;;;;;;4992586;28;20660;-78
2022/12/27 01:56:47;;;;;;;3.10;0.90;;;;;;;;;;5015164;28;20211;-78
2022/12/27 01:59:51;;;;;;;2.63;0.80;;;;;;;;;;5004421;28;20181;-78
2022/12/27 02:02:55;;;;;;;0.77;0.60;;;;;;;;;;5003291;28;20212;-78
2022/12/27 02:06:01;;;;;;;1.47;0.77;;;;;;;;;;5003251;28;20201;-77
2022/12/27 02:09:32;;;;;;;1.77;1.03;;;;;;;;;;5014988;28;20197;-77
2022/12/27 02:12:37;;;;;;;4.10;1.00;;;;;;;;;;5014932;28;20221;-78
2022/12/27 02:15:41;;;;;;;1.10;0.90;;;;;;;;;;5015271;28;20170;-78
2022/12/27 02:18:46;;;;;;;1.63;0.90;;;;;;;;;;5016031;28;20177;-78
2022/12/27 02:22:10;;;;;;;1.23;0.70;;;;;;;;;;5003219;28;20213;-78
2022/12/27 02:25:34;;;;;;;1.70;0.60;;;;;;;;;;5003989;28;20177;-77
2022/12/27 02:29:02;;;;;;;0.80;0.80;;;;;;;;;;4992768;28;20518;-78
2022/12/27 02:32:15;;;;;;;4.27;1.00;;;;;;;;;;5015844;28;20216;-77
2022/12/27 02:35:36;;;;;;;1.17;0.90;;;;;;;;;;5025888;28;20217;-78
2022/12/27 02:38:45;;;;;;;1.73;0.77;;;;;;;;;;5015499;28;20185;-77
2022/12/27 03:04:31;;;;;;;2.13;0.80;;;;;;;;;;4990170;28;20205;-78
2022/12/27 03:07:50;;;;;;;1.07;0.80;;;;;;;;;;5001340;28;20210;-78
2022/12/27 03:18:08;;;;;;;1.67;0.80;;;;;;;;;;5015179;28;20186;-78
2022/12/27 03:35:17;;;;;;;2.50;1.20;;;;;;;;;;5005896;28;20205;-78
2022/12/27 03:38:22;;;;;;;2.70;0.87;;;;;;;;;;5028418;28;20525;-78
2022/12/27 03:44:57;;;;;;;1.07;0.97;;;;;;;;;;5006387;28;20182;-77
2022/12/27 03:48:05;;;;;;;4.07;0.90;;;;;;;;;;5018303;28;20190;-78
2022/12/27 03:51:10;;;;;;;1.53;0.80;;;;;;;;;;5006925;28;20632;-78
2022/12/27 03:54:28;;;;;;;1.60;0.90;;;;;;;;;;5017981;28;20221;-77
2022/12/27 03:57:32;;;;;;;3.90;1.30;;;;;;;;;;5006475;28;20181;-78
2022/12/27 04:00:36;;;;;;;2.80;1.10;;;;;;;;;;5006499;28;20620;-78
2022/12/27 04:03:40;;;;;;;1.50;0.87;;;;;;;;;;5006309;28;20177;-78
2022/12/27 04:06:44;;;;;;;4.80;1.00;;;;;;;;;;5005908;28;20521;-78
2022/12/27 04:36:50;;;;;;;1.50;0.80;;;;;;;;;;4995048;28;20189;-78
2022/12/27 04:56:52;;;;;;;2.13;0.90;;;;;;;;;;5015417;28;20529;-77
2022/12/27 05:03:21;;;;;;;2.83;0.83;;;;;;;;;;5015484;28;20182;-76
2022/12/27 05:06:25;;;;;;;1.83;1.10;;;;;;;;;;5002520;28;20604;-77
2022/12/27 05:16:14;;;;;;;5.07;1.57;;;;;;;;;;5002956;28;21153;-77
2022/12/27 05:19:18;;;;;;;3.77;1.27;;;;;;;;;;5015567;28;20544;-78
2022/12/27 05:25:46;;;;;;;1.53;1.07;;;;;;;;;;5005436;28;20537;-78
2022/12/27 05:28:52;;;;;;;2.07;1.10;;;;;;;;;;5005195;28;20604;-78
2022/12/27 05:31:57;;;;;;;3.23;1.20;;;;;;;;;;5004363;28;20952;-78
2022/12/27 05:35:01;;;;;;;3.27;1.20;;;;;;;;;;4997076;28;20600;-78
2022/12/27 05:38:05;;;;;;;4.00;1.30;;;;;;;;;;4997762;28;20537;-77
2022/12/27 05:41:09;;;;;;;2.23;1.13;;;;;;;;;;5019632;28;20623;-77
2022/12/27 05:44:13;;;;;;;2.17;1.17;;;;;;;;;;5020713;28;20545;-77
2022/12/27 05:47:17;;;;;;;2.57;1.60;;;;;;;;;;5007560;28;20545;-77
2022/12/27 05:50:22;;;;;;;1.67;1.27;;;;;;;;;;4995016;28;20549;-77
2022/12/27 05:53:27;;;;;;;2.47;1.33;;;;;;;;;;4994332;28;20545;-77
2022/12/27 05:56:36;;;;;;;2.87;1.20;;;;;;;;;;5028527;28;20597;-77
2022/12/27 05:59:39;;;;;;;2.70;1.33;;;;;;;;;;5004927;28;20885;-77
2022/12/27 06:02:44;;;;;;;1.67;1.00;;;;;;;;;;5019357;28;20623;-78
2022/12/27 06:05:48;;;;;;;4.57;1.40;;;;;;;;;;5007377;28;20620;-78
2022/12/27 06:08:53;;;;;;;1.70;0.90;;;;;;;;;;4996817;28;20549;-78
2022/12/27 06:11:57;;;;;;;3.93;1.13;;;;;;;;;;5006389;28;20628;-78
2022/12/27 06:15:03;;;;;;;2.83;1.57;;;;;;;;;;5005820;28;20648;-78
2022/12/27 06:18:07;;;;;;;2.93;1.27;;;;;;;;;;5017816;28;20889;-78
2022/12/27 06:21:14;;;;;;;2.20;1.37;;;;;;;;;;5016515;28;20619;-78
2022/12/27 06:24:18;;;;;;;2.03;1.23;;;;;;;;;;5004265;28;20545;-78
2022/12/27 06:27:22;;;;;;;1.87;1.60;;;;;;;;;;5017794;28;21079;-79
2022/12/27 06:30:26;;;;;;;4.03;2.70;;;;;;;;;;5006138;28;20557;-78
2022/12/27 06:33:31;;;;;;;1.97;1.53;;;;;;;;;;5018984;28;20541;-78
2022/12/27 06:36:35;;;;;;;3.67;1.60;;;;;;;;;;5017318;28;20609;-78
2022/12/27 06:39:39;;;;;;;2.33;1.80;;;;;;;;;;5016655;28;20545;-78
2022/12/27 06:42:43;;;;;;;3.90;2.07;;;;;;;;;;5005618;28;20620;-78
2022/12/27 06:45:58;;;;;;;5.23;2.67;;;;;;;;;;5005437;28;20900;-78
2022/12/27 06:49:02;;;;;;;3.43;2.30;;;;;;;;;;5027935;28;20541;-79
2022/12/27 06:52:07;;;;;;;7.90;2.17;;;;;;;;;;4994253;28;20628;-79
2022/12/27 06:55:11;;;;;;;3.83;1.77;;;;;;;;;;5017915;28;20592;-78
2022/12/27 06:58:15;;;;;;;2.27;1.40;;;;;;;;;;5005312;28;20532;-79
2022/12/27 07:01:24;;;;;;;5.50;2.87;;;;;;;;;;5028502;28;20624;-78
2022/12/27 07:04:28;;;;;;;3.57;2.00;;;;;;;;;;4997481;28;20553;-78
2022/12/27 07:07:32;;;;;;;3.87;2.20;;;;;;;;;;4997779;28;20556;-77
2022/12/27 07:10:36;;;;;;;5.10;1.60;;;;;;;;;;4997468;28;20948;-79
2022/12/27 07:13:44;;;;;;;2.17;1.50;;;;;;;;;;4997661;28;20647;-78
2022/12/27 07:16:48;;;;;;;2.40;1.83;;;;;;;;;;5019803;28;20604;-78
2022/12/27 07:19:52;;;;;;;2.30;1.23;;;;;;;;;;4997403;28;20541;-78
2022/12/27 07:22:58;;;;;;;2.73;1.40;;;;;;;;;;5009065;28;21178;-78
2022/12/27 07:26:09;;;;;;;4.00;1.90;;;;;;;;;;5009491;28;20545;-79
2022/12/27 07:29:13;;;;;;;3.57;2.20;;;;;;;;;;5020717;28;20553;-77
2022/12/27 07:32:18;;;;;;;4.97;2.67;;;;;;;;;;4997407;28;20967;-78
2022/12/27 07:35:22;;;;;;;4.83;1.73;;;;;;;;;;5030873;28;20592;-78
2022/12/27 07:38:26;;;;;;;3.07;1.50;;;;;;;;;;5008043;28;20541;-78
2022/12/27 07:41:30;;;;;;;3.40;1.60;;;;;;;;;;4997059;28;20959;-77
2022/12/27 07:44:37;;;;;;;4.43;1.60;;;;;;;;;;5019234;28;20541;-77
2022/12/27 07:47:41;;;;;;;3.47;1.50;;;;;;;;;;5007970;28;20545;-78
2022/12/27 07:50:53;;;;;;;2.97;1.20;;;;;;;;;;5008343;28;20541;-78
2022/12/27 07:53:58;;;;;;;1.50;1.10;;;;;;;;;;5020376;28;20545;-78
2022/12/27 07:57:02;;;;;;;3.50;1.30;;;;;;;;;;5030305;28;20592;-77
2022/12/27 08:00:07;;;;;;;6.23;3.77;;;;;;;;;;5007062;28;20557;-77
2022/12/27 08:03:16;;;;;;;10.27;7.57;;;;;;;;;;4996715;28;20545;-78
2022/12/27 08:06:31;;;;;;;17.30;8.70;;;;;;;;;;4996077;28;20608;-78
2022/12/27 08:09:38;;;;;;;15.43;12.07;;;;;;;;;;4996513;28;20541;-78
2022/12/27 08:12:42;;;;;;;8.40;7.47;;;;;;;;;;5007613;28;20992;-77
2022/12/27 08:15:47;;;;;;;5.87;3.77;;;;;;;;;;4995623;28;20596;-78
2022/12/27 08:18:54;;;;;;;1.60;1.20;;;;;;;;;;4996679;28;20540;-78
2022/12/27 08:21:59;;;;;;;2.00;1.60;;;;;;;;;;4994950;28;20631;-78
2022/12/27 08:25:03;;;;;;;3.40;1.90;;;;;;;;;;5017100;28;20544;-77
2022/12/27 08:28:11;;;;;;;1.67;1.20;;;;;;;;;;5004718;28;20186;-77
2022/12/27 08:31:15;;;;;;;1.70;1.00;;;;;;;;;;5029437;28;20221;-78
2022/12/27 08:34:19;;;;;;;1.83;1.23;;;;;;;;;;5006996;28;20205;-78
2022/12/27 08:37:23;;;;;;;2.80;1.13;;;;;;;;;;5006870;28;20181;-78
2022/12/27 08:40:27;;;;;;;3.30;1.17;;;;;;;;;;5007075;28;20177;-78
2022/12/27 08:43:31;;;;;;;1.30;1.20;;;;;;;;;;4995216;28;20185;-78
2022/12/27 08:46:36;;;;;;;5.00;1.60;;;;;;;;;;5006484;28;20529;-76
2022/12/27 08:49:40;;;;;;;1.50;0.97;;;;;;;;;;5019207;28;20186;-78
2022/12/27 08:52:45;;;;;;;2.23;1.40;;;;;;;;;;5006843;28;20563;-78
2022/12/27 08:55:49;;;;;;;2.37;1.10;;;;;;;;;;4995788;28;20660;-77
2022/12/27 08:58:53;;;;;;;3.90;2.07;;;;;;;;;;5007462;28;20178;-78
2022/12/27 09:01:57;;;;;;;3.60;1.50;;;;;;;;;;5006876;28;20217;-78
2022/12/27 09:05:01;;;;;;;2.57;1.87;;;;;;;;;;5006874;28;20209;-78
2022/12/27 09:08:06;;;;;;;3.53;2.40;;;;;;;;;;5019544;28;20181;-78
2022/12/27 09:11:16;;;;;;;5.47;4.40;;;;;;;;;;4996339;28;20221;-78
2022/12/27 09:14:20;;;;;;;5.63;2.33;;;;;;;;;;4996289;28;20645;-79
2022/12/27 09:17:26;;;;;;;4.70;2.13;;;;;;;;;;5006116;28;20221;-78
2022/12/27 09:20:30;;;;;;;3.83;2.03;;;;;;;;;;5006602;28;20185;-77
2022/12/27 09:23:36;;;;;;;6.13;1.60;;;;;;;;;;4995902;28;20177;-79
2022/12/27 09:26:40;;;;;;;3.77;1.90;;;;;;;;;;5029579;28;20181;-78
2022/12/27 09:29:44;;;;;;;17.90;12.40;;;;;;;;;;4994845;28;20177;-78
2022/12/27 09:32:48;;;;;;;3.27;2.07;;;;;;;;;;4995268;28;20213;-77
2022/12/27 09:35:52;;;;;;;10.27;9.33;;;;;;;;;;5017042;28;20209;-78
2022/12/27 09:38:57;;;;;;;7.27;4.03;;;;;;;;;;4993882;28;20200;-78
2022/12/27 09:42:26;;;;;;;3.00;2.10;;;;;;;;;;4994697;28;20213;-78
2022/12/27 09:45:40;;;;;;;3.43;2.23;;;;;;;;;;5017747;28;20642;-79
2022/12/27 09:48:48;;;;;;;5.83;3.93;;;;;;;;;;5005178;28;20186;-78
2022/12/27 09:51:58;;;;;;;5.93;3.30;;;;;;;;;;4992918;28;20692;-78
2022/12/27 09:55:06;;;;;;;20.37;15.63;;;;;;;;;;5004883;28;20193;-77
2022/12/27 09:58:34;;;;;;;54.73;33.27;;;;;;;;;;4993827;28;20175;-77
2022/12/27 10:01:39;;;;;;;35.87;22.70;;;;;;;;;;5017353;28;20228;-77
2022/12/27 10:04:43;;;;;;;6.80;4.37;;;;;;;;;;5016460;28;20274;-78
2022/12/27 10:08:15;;;;;;;4.00;2.50;;;;;;;;;;5005186;28;20181;-78
2022/12/27 10:11:42;;;;;;;6.37;3.43;;;;;;;;;;4994501;28;20225;-78
2022/12/27 10:15:01;;;;;;;4.27;3.73;;;;;;;;;;5017498;28;20181;-78
2022/12/27 10:18:16;;;;;;;4.10;2.60;;;;;;;;;;5016521;28;20174;-78
2022/12/27 10:21:25;;;;;;;7.00;3.70;;;;;;;;;;5005053;28;20217;-77
2022/12/27 10:24:39;;;;;;;6.63;1.43;;;;;;;;;;5005370;28;20178;-77
2022/12/27 10:27:45;;;;;;;2.43;1.07;;;;;;;;;;4993796;28;20190;-78
2022/12/27 10:30:51;;;;;;;6.60;5.63;;;;;;;;;;5017302;28;20181;-78
2022/12/27 10:33:55;;;;;;;3.90;2.20;;;;;;;;;;5028136;28;20181;-77
2022/12/27 10:36:59;;;;;;;2.57;2.10;;;;;;;;;;4994547;28;20700;-77
2022/12/27 10:40:16;;;;;;;2.07;1.30;;;;;;;;;;4997865;28;20201;-77
2022/12/27 10:43:28;;;;;;;3.13;0.80;;;;;;;;;;5009311;28;20193;-78
2022/12/27 10:46:32;;;;;;;3.13;0.90;;;;;;;;;;5009541;28;20178;-77
2022/12/27 10:49:38;;;;;;;1.40;0.70;;;;;;;;;;5009086;28;20177;-78
2022/12/27 10:52:42;;;;;;;2.53;0.80;;;;;;;;;;5009018;28;20216;-78
2022/12/27 10:55:47;;;;;;;2.00;0.97;;;;;;;;;;4997785;28;20197;-78
2022/12/27 10:58:53;;;;;;;2.67;1.00;;;;;;;;;;5019932;28;20197;-78
2022/12/27 11:02:02;;;;;;;1.60;0.80;;;;;;;;;;4986118;28;20217;-79
2022/12/27 11:05:19;;;;;;;4.30;0.70;;;;;;;;;;5008790;28;20201;-80
2022/12/27 11:08:23;;;;;;;3.37;0.60;;;;;;;;;;5008726;28;20190;-80
2022/12/27 11:11:28;;;;;;;3.90;0.93;;;;;;;;;;5009347;28;20217;-79
2022/12/27 11:14:33;;;;;;;6.33;0.90;;;;;;;;;;5005559;28;20182;-79
2022/12/27 11:17:47;;;;;;;1.67;0.60;;;;;;;;;;5020545;28;20209;-79
2022/12/27 11:20:54;;;;;;;2.37;0.53;;;;;;;;;;4998141;28;20514;-78
2022/12/27 11:24:00;;;;;;;1.93;0.80;;;;;;;;;;5021086;28;20181;-79
2022/12/27 11:27:04;;;;;;;1.73;0.87;;;;;;;;;;5008917;28;20178;-78
2022/12/27 11:30:21;;;;;;;3.83;0.97;;;;;;;;;;4997906;28;20178;-77
2022/12/27 11:33:36;;;;;;;3.27;0.90;;;;;;;;;;4997741;28;20190;-79
2022/12/27 11:36:44;;;;;;;2.93;0.80;;;;;;;;;;4997475;28;20213;-78
2022/12/27 11:40:12;;;;;;;2.33;0.73;;;;;;;;;;5020897;28;20182;-78
2022/12/27 11:43:18;;;;;;;2.90;0.80;;;;;;;;;;4998020;28;20182;-78
2022/12/27 11:46:33;;;;;;;1.50;0.80;;;;;;;;;;5021216;28;20182;-78
2022/12/27 11:50:17;;;;;;;4.73;1.10;;;;;;;;;;5019833;28;20185;-78
2022/12/27 11:53:46;;;;;;;1.23;0.73;;;;;;;;;;4994402;28;20205;-80
2022/12/27 11:56:59;;;;;;;3.43;1.10;;;;;;;;;;5008611;28;20580;-77
2022/12/27 12:00:15;;;;;;;2.87;1.00;;;;;;;;;;5030637;28;20193;-79
2022/12/27 12:03:43;;;;;;;3.60;0.97;;;;;;;;;;5008627;28;20624;-78
2022/12/27 12:07:05;;;;;;;4.30;0.77;;;;;;;;;;4997503;28;20185;-77
2022/12/27 12:10:48;;;;;;;4.30;1.00;;;;;;;;;;5019334;28;20185;-77
2022/12/27 12:14:31;;;;;;;3.60;0.80;;;;;;;;;;4995684;28;20174;-77
2022/12/27 12:18:09;;;;;;;3.20;1.07;;;;;;;;;;4995094;28;20209;-78
2022/12/27 12:21:29;;;;;;;2.00;0.70;;;;;;;;;;5006417;28;20205;-77
2022/12/27 12:24:51;;;;;;;3.07;0.90;;;;;;;;;;4995312;28;20537;-78
2022/12/27 12:28:10;;;;;;;1.13;0.83;;;;;;;;;;5006510;28;20178;-77
2022/12/27 12:31:44;;;;;;;2.80;1.00;;;;;;;;;;5005997;28;20700;-78
2022/12/27 12:34:58;;;;;;;2.57;1.17;;;;;;;;;;4995597;28;20177;-79
2022/12/27 12:38:06;;;;;;;3.27;1.10;;;;;;;;;;5006076;28;20222;-77
2022/12/27 12:41:14;;;;;;;4.03;1.10;;;;;;;;;;5018280;28;20209;-79
2022/12/27 12:44:33;;;;;;;2.07;1.50;;;;;;;;;;4995261;28;20198;-78
2022/12/27 12:48:13;;;;;;;4.37;0.70;;;;;;;;;;4995352;28;20177;-77
2022/12/27 12:51:25;;;;;;;2.03;0.60;;;;;;;;;;4942333;28;20211;-78
2022/12/27 12:54:38;;;;;;;1.93;0.90;;;;;;;;;;5005802;28;20182;-78
2022/12/27 12:58:07;;;;;;;2.77;1.07;;;;;;;;;;4994762;28;20222;-77
2022/12/27 13:01:33;;;;;;;4.23;1.17;;;;;;;;;;5005429;28;20699;-78
2022/12/27 13:04:40;;;;;;;3.63;2.00;;;;;;;;;;5018438;28;20210;-78
2022/12/27 13:07:51;;;;;;;7.03;2.63;;;;;;;;;;5005560;28;20617;-78
2022/12/27 13:11:38;;;;;;;1.80;0.70;;;;;;;;;;4994481;28;20198;-78
2022/12/27 13:15:04;;;;;;;4.80;2.40;;;;;;;;;;4988731;28;20229;-78
2022/12/27 13:18:30;;;;;;;3.33;2.10;;;;;;;;;;5005945;28;20209;-78
2022/12/27 13:22:02;;;;;;;3.53;1.30;;;;;;;;;;5005569;28;20221;-78
2022/12/27 13:25:13;;;;;;;5.37;0.80;;;;;;;;;;4994041;28;20181;-78
2022/12/27 13:28:37;;;;;;;2.13;0.97;;;;;;;;;;4993926;28;20174;-78
2022/12/27 13:32:14;;;;;;;1.97;0.80;;;;;;;;;;4993962;28;20217;-78
2022/12/27 13:35:41;;;;;;;3.03;0.80;;;;;;;;;;5007482;28;20173;-79
2022/12/27 13:38:52;;;;;;;1.47;0.70;;;;;;;;;;4996454;28;20210;-79
2022/12/27 13:42:15;;;;;;;3.10;1.00;;;;;;;;;;4996892;28;20708;-79
2022/12/27 13:45:50;;;;;;;1.77;0.70;;;;;;;;;;4997137;28;20177;-79
2022/12/27 13:49:22;;;;;;;2.07;0.90;;;;;;;;;;4996643;28;20186;-79
2022/12/27 13:52:38;;;;;;;4.03;0.90;;;;;;;;;;5010825;28;20209;-78
2022/12/27 13:55:54;;;;;;;2.17;1.30;;;;;;;;;;5023216;28;20189;-79
2022/12/27 13:59:14;;;;;;;3.03;1.07;;;;;;;;;;5011597;28;20202;-78
2022/12/27 14:02:36;;;;;;;2.40;0.80;;;;;;;;;;5009874;28;20209;-78
2022/12/27 14:06:00;;;;;;;3.93;1.10;;;;;;;;;;5009490;28;20209;-79
2022/12/27 14:09:23;;;;;;;6.40;1.20;;;;;;;;;;5020797;28;20186;-79
2022/12/27 14:12:52;;;;;;;2.63;1.40;;;;;;;;;;4997012;28;20213;-79
2022/12/27 14:16:33;;;;;;;3.57;3.03;;;;;;;;;;5007358;28;20181;-79
2022/12/27 14:19:43;;;;;;;7.73;3.10;;;;;;;;;;5006680;28;20178;-78
2022/12/27 14:23:04;;;;;;;4.83;2.50;;;;;;;;;;5005700;28;20222;-78
2022/12/27 14:26:27;;;;;;;3.07;1.80;;;;;;;;;;5006750;28;20518;-78
2022/12/27 14:29:31;;;;;;;4.03;1.00;;;;;;;;;;5017101;28;20533;-79
2022/12/27 14:33:05;;;;;;;3.60;2.17;;;;;;;;;;5025045;28;20223;-78
2022/12/27 14:36:37;;;;;;;5.37;2.67;;;;;;;;;;5025391;28;20181;-78
2022/12/27 14:39:41;;;;;;;7.60;5.40;;;;;;;;;;5013904;28;20177;-78
2022/12/27 14:43:22;;;;;;;3.23;2.80;;;;;;;;;;5002291;28;20208;-78
2022/12/27 14:46:59;;;;;;;3.73;1.80;;;;;;;;;;5023700;28;20185;-78
2022/12/27 14:50:17;;;;;;;2.77;2.00;;;;;;;;;;4986964;28;20204;-77
2022/12/27 14:53:52;;;;;;;3.60;2.33;;;;;;;;;;5023674;28;20177;-77
2022/12/27 14:57:24;;;;;;;3.03;2.13;;;;;;;;;;5037421;28;20177;-78
2022/12/27 15:00:52;;;;;;;2.37;2.07;;;;;;;;;;5024347;28;20177;-78
2022/12/27 15:04:16;;;;;;;4.27;2.37;;;;;;;;;;5025008;28;20526;-78
2022/12/27 15:07:36;;;;;;;4.53;1.20;;;;;;;;;;5014712;28;20177;-80
2022/12/27 15:10:43;;;;;;;1.47;1.03;;;;;;;;;;5024771;28;20185;-77
2022/12/27 15:14:09;;;;;;;3.50;1.03;;;;;;;;;;5002507;28;20184;-78
2022/12/27 15:17:25;;;;;;;1.57;0.80;;;;;;;;;;4991851;28;20222;-78
2022/12/27 15:21:05;;;;;;;2.70;0.90;;;;;;;;;;4974256;28;20183;-77
2022/12/27 15:24:35;;;;;;;1.37;0.70;;;;;;;;;;4987212;28;20202;-79
2022/12/27 15:28:13;;;;;;;1.37;1.00;;;;;;;;;;4988109;28;20182;-77
2022/12/27 15:31:32;;;;;;;2.07;1.00;;;;;;;;;;4976721;28;20226;-78
2022/12/27 15:35:18;;;;;;;4.07;1.20;;;;;;;;;;4978079;28;20194;-78
2022/12/27 15:38:34;;;;;;;2.03;0.87;;;;;;;;;;4995402;28;20210;-78
2022/12/27 15:42:02;;;;;;;2.60;0.90;;;;;;;;;;4989605;28;20218;-78
2022/12/27 15:45:31;;;;;;;1.43;0.80;;;;;;;;;;5002574;28;20183;-77
2022/12/27 15:49:03;;;;;;;1.53;0.80;;;;;;;;;;5010989;28;20506;-77
2022/12/27 15:52:42;;;;;;;1.57;1.00;;;;;;;;;;4999424;28;20213;-78
2022/12/27 15:56:13;;;;;;;2.83;0.90;;;;;;;;;;5010931;28;20186;-77
2022/12/27 15:59:33;;;;;;;2.07;1.00;;;;;;;;;;5002560;28;20558;-78
2022/12/27 16:02:49;;;;;;;1.30;0.80;;;;;;;;;;5001553;28;20222;-78
2022/12/27 16:05:54;;;;;;;3.93;1.30;;;;;;;;;;4978138;28;20210;-79
2022/12/27 16:09:19;;;;;;;2.67;1.70;;;;;;;;;;5000827;28;20179;-77
2022/12/27 16:12:37;;;;;;;1.97;1.00;;;;;;;;;;4977492;28;20226;-78
2022/12/27 16:15:46;;;;;;;1.60;1.00;;;;;;;;;;4987664;28;20190;-78
2022/12/27 16:19:14;;;;;;;1.93;1.07;;;;;;;;;;4987652;28;20213;-78
2022/12/27 16:22:28;;;;;;;5.00;1.00;;;;;;;;;;4976762;28;20221;-78
2022/12/27 16:25:35;;;;;;;0.93;0.83;;;;;;;;;;4998984;28;20174;-78
2022/12/27 16:28:41;;;;;;;4.47;1.10;;;;;;;;;;4988078;28;20623;-78
2022/12/27 16:31:49;;;;;;;1.90;1.10;;;;;;;;;;4998246;28;20218;-76
2022/12/27 16:35:09;;;;;;;1.50;0.90;;;;;;;;;;4999293;28;20185;-78
2022/12/27 16:38:20;;;;;;;2.07;1.00;;;;;;;;;;4976620;28;20602;-78
2022/12/27 16:41:43;;;;;;;2.73;0.90;;;;;;;;;;4986757;28;20966;-78
2022/12/27 16:44:56;;;;;;;3.30;1.20;;;;;;;;;;4998745;28;20886;-77
2022/12/27 16:48:07;;;;;;;3.80;1.13;;;;;;;;;;4999206;28;20546;-79
2022/12/27 16:51:43;;;;;;;3.40;1.13;;;;;;;;;;4986858;28;20629;-80
2022/12/27 16:55:01;;;;;;;1.40;1.00;;;;;;;;;;4974957;28;20617;-80
2022/12/27 16:58:38;;;;;;;1.60;1.10;;;;;;;;;;4997847;28;21148;-79
2022/12/27 17:01:42;;;;;;;2.00;1.23;;;;;;;;;;4970024;28;20644;-79
2022/12/27 17:04:52;;;;;;;4.43;1.30;;;;;;;;;;4975831;28;21159;-77
2022/12/27 17:07:56;;;;;;;3.40;1.87;;;;;;;;;;5009262;28;20542;-79
2022/12/27 17:11:17;;;;;;;2.03;1.27;;;;;;;;;;4997419;28;20534;-79
2022/12/27 17:14:26;;;;;;;3.97;1.47;;;;;;;;;;4975333;28;20554;-79
2022/12/27 17:17:31;;;;;;;1.63;1.20;;;;;;;;;;4997236;28;20605;-80
2022/12/27 17:20:39;;;;;;;3.23;1.47;;;;;;;;;;4997299;28;20545;-79
2022/12/27 17:23:47;;;;;;;2.83;1.37;;;;;;;;;;4986505;28;20186;-79
2022/12/27 17:26:57;;;;;;;1.90;1.50;;;;;;;;;;4997677;28;20550;-79
2022/12/27 17:30:21;;;;;;;6.77;1.80;;;;;;;;;;4986162;28;20597;-80
2022/12/27 17:33:34;;;;;;;4.63;1.60;;;;;;;;;;4998558;28;20542;-80
2022/12/27 17:36:55;;;;;;;5.67;1.73;;;;;;;;;;4974927;28;20601;-79
2022/12/27 17:40:20;;;;;;;5.27;1.60;;;;;;;;;;4974902;28;20542;-80
2022/12/27 17:47:53;;;;;;;2.77;1.43;;;;;;;;;;4996694;28;20581;-78
2022/12/27 17:51:08;;;;;;;1.93;1.47;;;;;;;;;;4991958;28;20542;-78
2022/12/27 17:57:54;;;;;;;6.17;1.70;;;;;;;;;;4994679;28;20605;-77
2022/12/27 18:01:00;;;;;;;4.77;2.00;;;;;;;;;;4995316;28;20549;-77
2022/12/27 18:04:05;;;;;;;3.47;1.53;;;;;;;;;;4998197;28;20593;-78
2022/12/27 18:07:13;;;;;;;2.17;1.80;;;;;;;;;;4986513;28;20542;-77
2022/12/27 18:10:24;;;;;;;2.80;1.80;;;;;;;;;;4997909;28;20538;-78
2022/12/27 18:13:38;;;;;;;4.07;1.70;;;;;;;;;;4997963;28;20562;-77
2022/12/27 18:16:42;;;;;;;4.03;1.70;;;;;;;;;;4973679;28;21077;-77
2022/12/27 18:19:46;;;;;;;5.60;2.17;;;;;;;;;;4996040;28;21104;-77
2022/12/27 18:22:59;;;;;;;2.10;1.67;;;;;;;;;;4985705;28;20633;-77
2022/12/27 18:26:09;;;;;;;2.80;1.83;;;;;;;;;;4994783;28;20541;-79
2022/12/27 18:29:14;;;;;;;5.83;2.10;;;;;;;;;;4973929;28;21081;-78
2022/12/27 18:32:18;;;;;;;3.13;1.63;;;;;;;;;;4983225;28;20629;-77
2022/12/27 18:35:23;;;;;;;4.17;1.77;;;;;;;;;;4995977;28;20542;-77
2022/12/27 18:38:38;;;;;;;2.97;2.07;;;;;;;;;;4985056;28;20593;-77
2022/12/27 18:41:47;;;;;;;4.30;2.40;;;;;;;;;;4996618;28;20632;-78
2022/12/27 18:44:56;;;;;;;3.60;2.40;;;;;;;;;;4994095;28;20541;-77
2022/12/27 18:48:03;;;;;;;5.00;2.50;;;;;;;;;;4982736;28;20545;-77
2022/12/27 18:51:08;;;;;;;4.93;2.37;;;;;;;;;;4995929;28;20965;-77
2022/12/27 18:54:29;;;;;;;3.77;2.40;;;;;;;;;;4996022;28;20534;-77
2022/12/27 18:57:35;;;;;;;7.87;4.63;;;;;;;;;;4995811;28;20550;-78
2022/12/27 19:00:49;;;;;;;10.93;5.07;;;;;;;;;;4988768;28;20545;-79
2022/12/27 19:04:13;;;;;;;9.30;5.20;;;;;;;;;;5000122;28;21140;-78
2022/12/27 19:07:17;;;;;;;8.00;4.30;;;;;;;;;;4994375;28;20537;-78
2022/12/27 19:10:25;;;;;;;5.87;3.77;;;;;;;;;;5011304;28;20542;-78
2022/12/27 19:13:40;;;;;;;3.23;2.37;;;;;;;;;;4989137;28;20541;-77
2022/12/27 19:16:50;;;;;;;3.77;1.83;;;;;;;;;;4989400;28;20554;-78
2022/12/27 19:19:58;;;;;;;3.53;2.00;;;;;;;;;;5000609;28;20601;-78
2022/12/27 19:23:33;;;;;;;3.67;1.93;;;;;;;;;;5000957;28;20624;-77
2022/12/27 19:26:38;;;;;;;3.30;1.50;;;;;;;;;;4989584;28;20870;-79
2022/12/27 19:29:47;;;;;;;4.87;1.93;;;;;;;;;;4986933;28;20541;-77
2022/12/27 19:32:52;;;;;;;3.10;1.90;;;;;;;;;;4997268;28;20625;-76
2022/12/27 19:35:56;;;;;;;2.57;1.70;;;;;;;;;;4996723;28;20605;-77
2022/12/27 19:39:01;;;;;;;5.13;1.70;;;;;;;;;;4995872;28;20597;-77
2022/12/27 19:42:10;;;;;;;5.40;1.83;;;;;;;;;;4996645;28;20628;-75
2022/12/27 19:45:15;;;;;;;2.67;1.90;;;;;;;;;;4973981;28;20545;-77
2022/12/27 19:48:19;;;;;;;6.80;1.70;;;;;;;;;;4984785;28;20541;-77
2022/12/27 19:51:23;;;;;;;4.93;2.47;;;;;;;;;;4996801;28;20621;-75
2022/12/27 19:54:29;;;;;;;4.80;2.87;;;;;;;;;;4995473;28;20617;-75
2022/12/27 19:57:33;;;;;;;6.03;4.17;;;;;;;;;;4986334;28;20612;-77
2022/12/27 20:00:37;;;;;;;4.57;3.40;;;;;;;;;;4999134;28;20590;-79
2022/12/27 20:03:42;;;;;;;6.30;2.83;;;;;;;;;;4988807;28;20929;-77
2022/12/27 20:06:47;;;;;;;3.70;2.67;;;;;;;;;;4999109;28;20949;-77
2022/12/27 20:09:52;;;;;;;5.77;2.80;;;;;;;;;;4987592;28;20542;-78
2022/12/27 20:12:56;;;;;;;3.80;2.30;;;;;;;;;;4989175;28;20632;-78
2022/12/27 20:16:00;;;;;;;3.47;2.20;;;;;;;;;;4988724;28;20554;-78
2022/12/27 20:19:04;;;;;;;4.83;2.57;;;;;;;;;;4999887;28;20597;-79
2022/12/27 20:22:09;;;;;;;9.73;3.30;;;;;;;;;;4988765;28;20624;-80
2022/12/27 20:25:13;;;;;;;7.33;3.70;;;;;;;;;;4988495;28;20538;-79
2022/12/27 20:28:18;;;;;;;7.40;4.20;;;;;;;;;;4989101;28;20546;-79
2022/12/27 20:31:22;;;;;;;8.20;5.33;;;;;;;;;;4988302;28;20621;-79
2022/12/27 20:34:26;;;;;;;9.53;4.80;;;;;;;;;;5000983;28;20617;-79
2022/12/27 20:37:30;;;;;;;7.67;4.80;;;;;;;;;;4989237;28;20946;-79
2022/12/27 20:40:34;;;;;;;8.37;4.10;;;;;;;;;;4988344;28;20594;-79
2022/12/27 20:43:39;;;;;;;5.93;4.37;;;;;;;;;;4988794;28;20550;-79
2022/12/27 20:46:43;;;;;;;9.37;5.23;;;;;;;;;;4999757;28;20550;-79
2022/12/27 20:49:48;;;;;;;6.93;4.33;;;;;;;;;;5000297;28;20550;-79
2022/12/27 20:52:51;;;;;;;6.60;4.33;;;;;;;;;;4988523;28;20620;-79
2022/12/27 20:55:57;;;;;;;6.93;3.57;;;;;;;;;;5000042;28;20542;-79
2022/12/27 20:59:02;;;;;;;4.73;3.23;;;;;;;;;;5000290;28;21128;-79
2022/12/27 21:02:06;;;;;;;6.10;3.60;;;;;;;;;;4977211;28;20629;-79